Home > Products > Valid Products > TAF

000
FTUS44 KMEG 021700
TAFJBR
TAF
KJBR 021732Z 0218/0318 22009KT P6SM VCSH SCT020 BKN040 OVC100
     FM030000 VRB03KT P6SM SCT040 BKN150
     FM030600 VRB03KT 5SM BR SCT040
      TEMPO 0309/0312 2SM BR
     FM031400 19004KT P6SM BKN035=



000
FTUS44 KMEG 021700
TAFMEM
TAF
KMEM 021732Z 0218/0318 23008KT P6SM VCSH SCT019 BKN035 BKN200
     FM021900 23008KT P6SM VCTS SCT019 BKN035CB BKN200
     FM030000 20006KT P6SM SCT040 BKN150
      TEMPO 0309/0312 5SM BR
     FM031500 21004KT P6SM BKN035=



000
FTUS44 KMEG 021700
TAFTUP
TAF
KTUP 021732Z 0218/0318 19008KT P6SM -SHRA VCTS BKN040CB
     FM030000 VRB02KT P6SM SCT040 BKN150
     FM030600 VRB02KT 5SM BR SCT040
      TEMPO 0309/0312 2SM BR
     FM031400 24003KT P6SM BKN035=



000
FTUS44 KMEG 021700
TAFMKL
TAF
KMKL 021732Z 0218/0318 22008KT P6SM VCSH SCT019 BKN035 BKN200
      TEMPO 0218/0220 BKN019
     FM022000 22008KT P6SM VCTS SCT019 BKN035CB BKN200
     FM030000 VRB03KT P6SM SCT040 BKN150
     FM030600 VRB03KT 4SM BR SCT040
      TEMPO 0309/0312 1SM BR SCT005
     FM031400 19003KT P6SM BKN035=



000
FTUS44 KMEG 021600 AAE
TAFMEM
TAF AMD
KMEM 021601Z 0216/0312 26006KT P6SM VCSH SCT013 BKN020 BKN040
      TEMPO 0216/0218 BKN013
     FM021800 22010KT P6SM VCSH SCT020 BKN040 OVC100
     FM022000 22010KT P6SM BKN040
     FM030000 20006KT P6SM SCT040 BKN150
      TEMPO 0309/0312 5SM BR=



000
FTUS44 KMEG 021400 AAD
TAFMEM
TAF AMD
KMEM 021458Z 0215/0312 24008KT P6SM VCSH SCT011 BKN040
      TEMPO 0215/0216 -SHRA BKN011
     FM021700 22010KT P6SM VCSH SCT020 BKN040 OVC100
     FM022000 22010KT P6SM BKN040
     FM030000 20006KT P6SM SCT040 BKN150
      TEMPO 0309/0312 5SM BR=



000
FTUS44 KMEG 021400 AAC
TAFMEM
TAF AMD
KMEM 021451Z 0215/0312 21009KT P6SM VCSH SCT011 BKN040
      TEMPO 0215/0216 -SHRA BKN011
     FM021700 22010KT P6SM VCSH SCT020 BKN040 OVC100
     FM022000 22010KT P6SM BKN040
     FM030000 20006KT P6SM SCT040 BKN150
      TEMPO 0309/0312 5SM BR=



000
FTUS44 KMEG 021400 AAA
TAFMKL
TAF AMD
KMKL 021450Z 0215/0312 24007KT P6SM VCSH SCT015 BKN040
      TEMPO 0215/0217 -SHRA BKN015
     FM021700 22008KT P6SM VCSH SCT020 BKN040 OVC100
     FM022000 22008KT P6SM BKN040
     FM030000 VRB03KT P6SM SCT040 BKN150
     FM030600 VRB03KT 4SM BR SCT040
      TEMPO 0309/0312 1SM BR SCT005=



000
FTUS44 KMEG 021400 AAB
TAFMEM
TAF AMD
KMEM 021437Z 0215/0312 21007KT P6SM OVC011
     FM021500 22010KT P6SM VCSH SCT011 BKN040
      TEMPO 0215/0217 3SM -SHRA BR BKN011
     FM021700 22010KT P6SM VCSH SCT020 BKN040 OVC100
     FM022000 22010KT P6SM BKN040
     FM030000 20006KT P6SM SCT040 BKN150
      TEMPO 0309/0312 5SM BR=



000
FTUS44 KMEG 021300 AAA
TAFMEM
TAF AMD
KMEM 021315Z 0213/0312 21007KT P6SM SCT011 BKN250
      TEMPO 0213/0215 BKN011
     FM021500 22010KT P6SM VCTS SCT015 BKN040CB
      TEMPO 0215/0217 3SM TSRA BR BKN015CB
     FM021700 22010KT P6SM VCSH SCT020 BKN040 OVC100
     FM022000 22010KT P6SM BKN040
     FM030000 20006KT P6SM SCT040 BKN150
      TEMPO 0309/0312 5SM BR=



000
FTUS44 KMEG 021100
TAFMEM
TAF
KMEM 021136Z 0212/0312 20008KT P6SM SCT015 BKN250
      TEMPO 0212/0215 BKN015
     FM021500 22010KT P6SM VCTS SCT015 BKN040CB
      TEMPO 0215/0217 3SM TSRA BR BKN015CB
     FM021700 22010KT P6SM VCSH SCT020 BKN040 OVC100
     FM022000 22010KT P6SM BKN040
     FM030000 20006KT P6SM SCT040 BKN150
      TEMPO 0309/0312 5SM BR=



000
FTUS44 KMEG 021100
TAFMKL
TAF
KMKL 021136Z 0212/0312 19006KT P6SM SCT015 BKN250
      TEMPO 0213/0215 BKN015
     FM021500 22008KT P6SM VCTS SCT015 BKN040CB
      TEMPO 0215/0217 3SM TSRA BR BKN015CB
     FM021700 22008KT P6SM VCSH SCT020 BKN040 OVC100
     FM022000 22008KT P6SM BKN040
     FM030000 VRB03KT P6SM SCT040 BKN150
     FM030600 VRB03KT 4SM BR SCT040
      TEMPO 0309/0312 1SM BR SCT005=



000
FTUS44 KMEG 021100
TAFTUP
TAF
KTUP 021136Z 0212/0312 20004KT P6SM SCT015 BKN250
      TEMPO 0212/0215 BKN015
     FM021600 23007KT P6SM VCTS BKN040CB
     FM030000 VRB02KT P6SM SCT040 BKN150
     FM030600 VRB02KT 5SM BR SCT040
      TEMPO 0309/0312 2SM BR=



000
FTUS44 KMEG 021100
TAFJBR
TAF
KJBR 021136Z 0212/0312 20010KT P6SM SCT015 BKN250
      TEMPO 0212/0213 BKN015
     FM021300 22010KT P6SM VCTS SCT015 BKN040CB
      TEMPO 0213/0215 VRB15G25KT 3SM TSRA BR BKN015CB
     FM021500 22010KT 6SM -SHRA SCT020 BKN040 OVC100
     FM021900 22010KT P6SM BKN040
     FM030000 VRB03KT P6SM SCT040 BKN150
     FM030600 VRB03KT 5SM BR SCT040
      TEMPO 0309/0312 2SM BR=



000
FTUS44 KMEG 020800 AAA
TAFMEM
TAF AMD
KMEM 020858Z 0209/0306 18008KT P6SM FEW015 BKN250
      TEMPO 0212/0215 BKN015
     FM021600 22010KT P6SM VCSH SCT040 BKN150
     FM022200 21008KT P6SM VCTS BKN045CB BKN150
      TEMPO 0222/0301 VRB10G20KT 6SM SHRA BKN035
     FM030200 19005KT P6SM VCSH SCT040 BKN150=



000
FTUS44 KMEG 020500
TAFTUP
TAF
KTUP 020529Z 0206/0306 20004KT P6SM FEW010 SCT250
      TEMPO 0211/0214 5SM BR BKN010
     FM021600 24007KT P6SM VCSH SCT040 BKN250
      TEMPO 0217/0220 VRB10KT 6SM SHRA BKN040
     FM030000 VRB02KT P6SM VCSH SCT040 BKN150=



000
FTUS44 KMEG 020500
TAFJBR
TAF
KJBR 020529Z 0206/0306 17007KT P6SM FEW015 BKN250
      TEMPO 0213/0215 BKN015
     FM021600 22010KT P6SM VCSH BKN040 BKN150
     FM021900 20010KT P6SM SHRA VCTS BKN040CB
      TEMPO 0220/0223 VRB10G20KT 4SM TSRA BKN035CB
     FM030100 VRB03KT 6SM BR VCSH SCT040 BKN150=



000
FTUS44 KMEG 020500
TAFMEM
TAF
KMEM 020529Z 0206/0306 18008KT P6SM FEW015 BKN250
      TEMPO 0212/0215 BKN015
     FM021600 22010KT P6SM VCSH SCT040 BKN150
     FM022200 21008KT P6SM VCTS BKN045CB BKN150
      TEMPO 0222/0301 VRB10G20KT 6SM SHRA BKN035
     FM030200 19005KT P6SM VCSH SCT040 BKN150=



000
FTUS44 KMEG 020500
TAFMKL
TAF
KMKL 020529Z 0206/0306 19006KT P6SM FEW015 BKN250
      TEMPO 0213/0216 BKN015
     FM021600 22008KT P6SM VCSH BKN040 BKN150
     FM022000 22008KT P6SM -SHRA VCTS BKN040CB BKN150
      TEMPO 0221/0224 4SM TSRA BKN035CB
     FM030100 VRB02KT P6SM VCSH SCT040 BKN150=



000
FTUS44 KMEG 020200 AAA
TAFMEM
TAF AMD
KMEM 020259Z 0203/0224 18008KT P6SM SKC
     FM021100 21008KT P6SM BKN020
      TEMPO 0212/0214 BKN015
     FM021600 22010KT P6SM SCT035 BKN150=



000
FTUS44 KMEG 012300
TAFJBR
TAF
KJBR 012322Z 0200/0224 19009KT P6SM FEW040
     FM021000 21010KT P6SM BKN020
      TEMPO 0212/0215 BKN015
     FM021600 22012G17KT P6SM SCT035 BKN150
     FM022200 20010KT P6SM VCSH BKN040=



000
FTUS44 KMEG 012300
TAFMEM
TAF
KMEM 012322Z 0200/0224 19009KT P6SM FEW040
     FM021100 21010KT P6SM BKN020
      TEMPO 0212/0214 BKN015
     FM021600 22010KT P6SM SCT035 BKN150=



000
FTUS44 KMEG 012300
TAFMKL
TAF
KMKL 012322Z 0200/0224 19007KT P6SM FEW040
     FM021100 21009KT P6SM BKN020
      TEMPO 0212/0215 BKN015
     FM021600 22010KT P6SM SCT035 BKN150=



000
FTUS44 KMEG 012300
TAFTUP
TAF
KTUP 012322Z 0200/0224 20005KT P6SM FEW250
     FM021000 22005KT P6SM BKN015
      TEMPO 0211/0214 BKN009
     FM021600 24009KT P6SM SCT035 SCT250=



000
FTUS44 KMEG 012100 AAD
TAFMEM
TAF AMD
KMEM 012100Z 0121/0218 20010G15KT P6SM SCT040
     FM020100 19008KT P6SM SCT040
     FM020600 20010KT P6SM BKN045=



000
FTUS44 KMEG 012000 AAB
TAFTUP
TAF AMD
KTUP 012008Z 0120/0218 20006KT P6SM SCT050
     FM020100 19005KT P6SM SKC
     FM021100 23005KT P6SM BKN020=



000
FTUS44 KMEG 012000 AAA
TAFJBR
TAF AMD
KJBR 012006Z 0120/0218 20015G20KT P6SM SCT035
     FM020100 20008KT P6SM SCT045
     FM021400 22009KT P6SM SCT045=



000
FTUS44 KMEG 012000 AAB
TAFMKL
TAF AMD
KMKL 012005Z 0120/0218 20012G18KT P6SM SCT040
     FM020100 19006KT P6SM SKC
     FM020600 18010KT P6SM SCT045=



000
FTUS44 KMEG 012000 AAC
TAFMEM
TAF AMD
KMEM 012004Z 0120/0218 20012G18KT P6SM SCT030
     FM020100 19010KT P6SM SCT040
     FM020600 20010KT P6SM BKN045=



000
FTUS44 KMEG 011900 AAA
TAFMKL
TAF AMD
KMKL 011914Z 0119/0218 23010G15KT P6SM VCSH SCT035
     FM020100 19006KT P6SM SKC
     FM020600 18010KT P6SM SCT045=



000
FTUS44 KMEG 011900 AAB
TAFMEM
TAF AMD
KMEM 011913Z 0119/0218 23010G15KT P6SM VCSH SCT030
     FM012100 24015G20KT P6SM SCT040
     FM020100 19010KT P6SM SCT040
     FM020600 20010KT P6SM BKN045=



000
FTUS44 KMEG 011800 AAA
TAFTUP
TAF AMD
KTUP 011829Z 0118/0218 24008KT P6SM SCT040
     FM020100 19005KT P6SM SKC
     FM021100 23005KT P6SM BKN020=



000
FTUS44 KMEG 011800 AAA
TAFMEM
TAF AMD
KMEM 011827Z 0118/0218 23010G15KT P6SM VCSH SCT040
     FM012100 24015G20KT P6SM SCT040
     FM020100 19010KT P6SM SCT040
     FM020600 20010KT P6SM BKN045=



000
FTUS44 KMEG 011700
TAFTUP
TAF
KTUP 011729Z 0118/0218 25010KT P6SM SCT030
     FM020100 19005KT P6SM SKC
     FM021100 23005KT P6SM BKN020=



000
FTUS44 KMEG 011700
TAFMKL
TAF
KMKL 011729Z 0118/0218 23010G15KT P6SM VCSH SCT030
     FM020100 19006KT P6SM SKC
     FM020600 18010KT P6SM SCT045=



000
FTUS44 KMEG 011700
TAFJBR
TAF
KJBR 011729Z 0118/0218 24012G18KT P6SM SCT035
     FM020100 20008KT P6SM SCT045
     FM021400 22009KT P6SM SCT045=



000
FTUS44 KMEG 011700
TAFMEM
TAF
KMEM 011729Z 0118/0218 23007G15KT P6SM VCSH SCT040
     FM012100 24015G20KT P6SM SCT040
     FM020100 19010KT P6SM SCT040
     FM020600 20010KT P6SM BKN045=



000
FTUS44 KMEG 011600 AAD
TAFJBR
TAF AMD
KJBR 011606Z 0116/0212 24012G18KT P6SM BKN025
     FM011900 22015KT P6SM BKN035
     FM020100 20008KT P6SM BKN250=



000
FTUS44 KMEG 011600 AAD
TAFMKL
TAF AMD
KMKL 011604Z 0116/0212 25012G18KT P6SM FEW020 BKN030
     FM011900 21010KT P6SM SCT035
     FM020100 19006KT P6SM SKC
     FM020600 18010KT P6SM SCT250=



000
FTUS44 KMEG 011600 AAE
TAFMEM
TAF AMD
KMEM 011601Z 0116/0212 26010G15KT P6SM SCT020 BKN035
     FM011800 21010KT P6SM SCT030
     FM020100 19010KT P6SM SCT250=



000
FTUS44 KMEG 011500 AAC
TAFTUP
TAF AMD
KTUP 011514Z 0115/0212 25006KT P6SM SCT014
     FM011800 23010KT P6SM SCT030
     FM020100 19005KT P6SM SKC
     FM021100 21005KT P6SM BKN020=



000
FTUS44 KMEG 011500 AAC
TAFMKL
TAF AMD
KMKL 011512Z 0115/0212 23012G15KT P6SM SCT015 BKN030
     FM011700 21010KT P6SM SCT035
     FM020100 19006KT P6SM SKC
     FM020600 18010KT P6SM SCT250=



000
FTUS44 KMEG 011500 AAD
TAFMEM
TAF AMD
KMEM 011511Z 0115/0212 21010G15KT P6SM BKN016 OVC030
     FM011800 21010KT P6SM SCT018
     FM020100 19010KT P6SM SCT250=



000
FTUS44 KMEG 011400 AAB
TAFTUP
TAF AMD
KTUP 011421Z 0114/0212 23007KT P6SM BKN007
     FM011700 23010KT P6SM SCT030
     FM020100 19005KT P6SM SKC
     FM021100 21005KT P6SM BKN020=



000
FTUS44 KMEG 011400 AAC
TAFJBR
TAF AMD
KJBR 011418Z 0114/0212 24015KT P6SM FEW016 SCT025
     FM011700 22015KT P6SM BKN035
     FM020100 20008KT P6SM BKN250=



000
FTUS44 KMEG 011400 AAB
TAFMKL
TAF AMD
KMKL 011416Z 0114/0212 23012G15KT P6SM OVC013
     FM011700 21010KT P6SM SCT035 SCT250
     FM020100 19006KT P6SM SKC
     FM020600 18010KT P6SM SCT250=



000
FTUS44 KMEG 011400 AAC
TAFMEM
TAF AMD
KMEM 011414Z 0114/0212 24008KT P6SM OVC015
     FM011700 21010KT P6SM BKN018
     FM020100 19010KT P6SM SCT250=



000
FTUS44 KMEG 011300 AAA
TAFTUP
TAF AMD
KTUP 011330Z 0114/0212 22005KT P6SM FEW010 SCT035
     FM020100 19005KT P6SM SKC
     FM021100 21005KT P6SM BKN020=



000
FTUS44 KMEG 011300 AAB
TAFJBR
TAF AMD
KJBR 011318Z 0113/0212 24010KT P6SM OVC019
     FM011500 22015KT P6SM BKN035
     FM020100 20008KT P6SM BKN250=



000
FTUS44 KMEG 011300 AAA
TAFMKL
TAF AMD
KMKL 011314Z 0113/0212 21007KT P6SM BKN110
     FM011400 21008KT P6SM BKN025
     FM011700 21010KT P6SM SCT035 SCT250
     FM020100 19006KT P6SM SKC
     FM020600 18010KT P6SM SCT250=



000
FTUS44 KMEG 011300 CCA
TAFMEM
TAF COR
KMEM 011308Z 0113/0212 22006KT P6SM BKN013
     FM011500 21010KT P6SM SCT040 SCT250
     FM020100 19010KT P6SM SCT250=



000
FTUS44 KMEG 011300 AAB
TAFMEM
TAF AMD
KMEM 011307Z 0113/0212 22006KT P6SM FEW010 BKN035
     FM011500 21010KT P6SM SCT040 SCT250
     FM020100 19010KT P6SM SCT250=



000
FTUS44 KMEG 011200 AAA
TAFMEM
TAF AMD
KMEM 011229Z 0112/0212 21006KT P6SM SCT010
     FM011500 21010KT P6SM SCT040 SCT250
     FM020100 19010KT P6SM SCT250=



000
FTUS44 KMEG 011200 AAA
TAFJBR
TAF AMD
KJBR 011229Z 0112/0212 21010KT P6SM OVC025
     FM011500 22015KT P6SM SCT035 SCT250
     FM020100 20008KT P6SM BKN250=



000
FTUS44 KMEG 011100
TAFMEM
TAF
KMEM 011128Z 0112/0212 18010KT P6SM BKN040
      TEMPO 0112/0114 BKN015
     FM011500 21010KT P6SM SCT040 SCT250
     FM020100 19010KT P6SM SCT250=



000
FTUS44 KMEG 011100
TAFTUP
TAF
KTUP 011128Z 0112/0212 20004KT 5SM BR SCT100
     FM011400 22010KT P6SM SCT035 SCT250
     FM020100 19005KT P6SM SCT250=



000
FTUS44 KMEG 011100
TAFMKL
TAF
KMKL 011128Z 0112/0212 18006KT P6SM SCT090
     FM011500 21010KT P6SM SCT035 SCT250
     FM020100 19006KT P6SM SKC
     FM020600 18010KT P6SM SCT250=



000
FTUS44 KMEG 011100
TAFJBR
TAF
KJBR 011128Z 0112/0212 21010KT P6SM BKN035
     FM011500 22015KT P6SM SCT035 SCT250
     FM020100 20008KT P6SM BKN250=



000
FTUS44 KMEG 010900 AAA
TAFJBR
TAF AMD
KJBR 010904Z 0109/0206 19010KT P6SM BKN015
     FM011500 22015G25KT P6SM SCT035 SCT250
     FM020100 20008KT P6SM BKN250=



000
FTUS44 KMEG 010900 AAA
TAFMEM
TAF AMD
KMEM 010903Z 0109/0206 19005KT P6SM SCT100
     FM011500 20012G18KT P6SM SCT035 SCT250
     FM020100 19008KT P6SM SCT250=



000
FTUS44 KMEG 010500
TAFMKL
TAF
KMKL 010520Z 0106/0206 18006KT P6SM SKC
      TEMPO 0109/0113 4SM BR
     FM011400 21010KT P6SM SCT035 SCT250
     FM020100 19006KT P6SM SCT250=



000
FTUS44 KMEG 010500
TAFTUP
TAF
KTUP 010520Z 0106/0206 20004KT P6SM SCT100
      TEMPO 0109/0113 3SM BR
     FM011500 23008KT P6SM SCT035 SCT250
     FM020100 19005KT P6SM SCT250=



000
FTUS44 KMEG 010500
TAFJBR
TAF
KJBR 010520Z 0106/0206 21009KT P6SM SKC
     FM011500 22015G25KT P6SM SCT035 SCT250
     FM020100 20008KT P6SM BKN250=



000
FTUS44 KMEG 010500
TAFMEM
TAF
KMEM 010520Z 0106/0206 19004KT P6SM SKC
     FM011500 20012G18KT P6SM SCT035 SCT250
     FM020100 19008KT P6SM SCT250=



000
FTUS44 KMEG 010300 AAB
TAFMEM
TAF AMD
KMEM 010301Z 0103/0124 19008KT P6SM SCT100
     FM011500 20012G18KT P6SM SCT035 SCT250=



000
FTUS44 KMEG 010200 AAA
TAFMKL
TAF AMD
KMKL 010214Z 0102/0124 19006KT P6SM BKN100
      TEMPO 0109/0113 5SM BR
     FM011400 21010KT P6SM SCT035 SCT250=



000
FTUS44 KMEG 010100 AAA
TAFMEM
TAF AMD
KMEM 010120Z 0101/0124 20010KT P6SM VCSH SCT025 SCT040
     FM010300 19008KT P6SM SCT025 BKN080
     FM011500 20012G18KT P6SM SCT035 SCT250=



000
FTUS44 KMEG 312300
TAFJBR
TAF
KJBR 312331Z 0100/0124 21009KT P6SM SCT030
     FM010100 21008KT P6SM VCSH SCT030
     FM010300 20007KT P6SM SCT030 BKN080
     FM010700 20007KT P6SM SCT080
     FM011500 22015G25KT P6SM SCT035 SCT250=



000
FTUS44 KMEG 312300
TAFTUP
TAF
KTUP 312331Z 0100/0124 21009KT P6SM BKN080
     FM010100 19008KT P6SM VCSH SCT025 BKN080
     FM010400 19006KT P6SM SCT025 BKN080
     FM010800 18005KT P6SM SCT080
      TEMPO 0110/0114 5SM BR FEW010
     FM011400 23007KT P6SM SCT035 SCT250=



000
FTUS44 KMEG 312300
TAFMKL
TAF
KMKL 312331Z 0100/0124 21006KT P6SM VCSH SCT025 BKN040
      TEMPO 0100/0103 -SHRA BKN025
     FM010300 19006KT P6SM SCT025 BKN080
     FM010700 18005KT P6SM SCT080
      TEMPO 0109/0113 5SM BR
     FM011400 21010KT P6SM SCT035 SCT250=



000
FTUS44 KMEG 312300
TAFMEM
TAF
KMEM 312331Z 0100/0124 22008KT P6SM VCSH SCT025 BKN040
      TEMPO 0101/0103 -SHRA BKN025
     FM010300 20008KT P6SM SCT025 BKN080
     FM010700 19008KT P6SM SCT080
     FM011500 20012G18KT P6SM SCT035 SCT250=



000
FTUS44 KMEG 312000 AAB
TAFMEM
TAF AMD
KMEM 312051Z 3121/0118 22009KT P6SM VCSH SCT020 BKN050
     FM010100 20007KT P6SM SCT050
     FM011200 20011G15KT P6SM SCT100=



000
FTUS44 KMEG 311900 AAA
TAFMEM
TAF AMD
KMEM 312000Z 3120/0118 22009KT P6SM VCSH SCT020 BKN035
     FM312200 20007KT P6SM BKN035
     FM010300 20007KT P6SM SCT050
     FM011200 20011G15KT P6SM SCT100=



000
FTUS44 KMEG 311900 AAA
TAFMKL
TAF AMD
KMKL 311957Z 3120/0118 21010KT P6SM VCSH SCT020 BKN035
     FM312200 20004KT P6SM BKN035
     FM010300 19005KT P6SM SCT050 BKN100
      TEMPO 0109/0113 5SM BR
     FM011400 21011KT P6SM SCT100=



000
FTUS44 KMEG 311700
TAFJBR
TAF
KJBR 311735Z 3118/0118 22009KT P6SM SCT025 BKN035
     FM010100 19005KT P6SM SCT050
     FM011200 22015G20KT P6SM FEW100 SCT250=



000
FTUS44 KMEG 311700
TAFMKL
TAF
KMKL 311735Z 3118/0118 21010KT P6SM VCSH BKN015 OVC025
     FM312200 20004KT P6SM BKN035
     FM010300 19005KT P6SM SCT050 BKN100
      TEMPO 0109/0113 5SM BR
     FM011400 21011KT P6SM SCT100=



000
FTUS44 KMEG 311700
TAFMEM
TAF
KMEM 311735Z 3118/0118 22009KT P6SM VCSH SCT015 BKN030 OVC250
     FM312200 20007KT P6SM BKN035
     FM010300 20007KT P6SM SCT050
     FM011200 20011G15KT P6SM SCT100=



000
FTUS44 KMEG 311700
TAFTUP
TAF
KTUP 311735Z 3118/0118 22010KT P6SM VCSH BKN025 OVC100
     FM312100 22008KT P6SM BKN100
     FM010300 20002KT P6SM SCT100
      TEMPO 0110/0114 5SM BR FEW010
     FM011400 23007KT P6SM FEW100 SCT200=



000
FTUS44 KMEG 311500 AAA
TAFMEM
TAF AMD
KMEM 311504Z 3115/0112 20008KT P6SM -SHRA SCT008 OVC025
     FM311800 21010KT P6SM OVC025
     FM312200 20010KT P6SM OVC050
     FM010100 19007KT P6SM SCT250
     FM010600 19010KT P6SM FEW250=



000
FTUS44 KMEG 311200 AAA
TAFMKL
TAF AMD
KMKL 311233Z 3113/0112 18010KT P6SM -SHRA OVC015
      TEMPO 3113/3117 2SM -RA BR OVC008
     FM311800 21010KT P6SM OVC020
     FM312100 21008KT P6SM OVC050
     FM010100 19005KT P6SM SCT250=



000
FTUS44 KMEG 311100
TAFMKL
TAF
KMKL 311126Z 3112/0112 18010KT P6SM -SHRA OVC010
     FM311800 21010KT P6SM OVC020
     FM312100 21008KT P6SM OVC050
     FM010100 19005KT P6SM SCT250=



000
FTUS44 KMEG 311100
TAFTUP
TAF
KTUP 311126Z 3112/0112 21010KT P6SM -SHRA OVC007
     FM311700 22010KT P6SM OVC050
     FM010100 20005KT P6SM BKN250=



000
FTUS44 KMEG 311100
TAFJBR
TAF
KJBR 311126Z 3112/0112 00000KT P6SM OVC009
     FM311800 21010KT P6SM OVC025
     FM312000 21010KT P6SM OVC050
     FM010100 19005KT P6SM SCT250=



000
FTUS44 KMEG 311100
TAFMEM
TAF
KMEM 311126Z 3112/0112 20005KT P6SM -SHRA OVC015
     FM311800 21010KT P6SM OVC020
     FM312200 20010KT P6SM OVC050
     FM010100 19007KT P6SM SCT250
     FM010600 19010KT P6SM FEW250=



000
FTUS44 KMEG 310900 AAB
TAFJBR
TAF AMD
KJBR 310901Z 3109/0106 20007KT P6SM OVC010
     FM311500 22010KT P6SM SCT010 BKN025
     FM311800 23012KT P6SM SCT025 BKN035
     FM010100 19008KT P6SM SCT150=



000
FTUS44 KMEG 310900 AAA
TAFMEM
TAF AMD
KMEM 310900Z 3109/0106 18010KT P6SM -SHRA OVC009
     FM311500 22010KT P6SM VCSH BKN015 BKN035
     FM311800 22012KT P6SM VCTS SCT025 BKN035CB
     FM010100 19007KT P6SM SCT150=



000
FTUS44 KMEG 310800 AAA
TAFMKL
TAF AMD
KMKL 310831Z 3109/0106 17005KT P6SM -SHRA OVC009
     FM311500 21010KT 6SM -SHRA BR VCTS BKN015 OVC025CB
     FM312000 22012KT P6SM VCTS SCT015 BKN030CB
     FM010100 18005KT P6SM SCT070 BKN150=



000
FTUS44 KMEG 310600 AAA
TAFJBR
TAF AMD
KJBR 310602Z 3106/0106 16007KT P6SM BKN006
     FM310900 20007KT 5SM BR VCSH BKN008 OVC015
     FM311500 22010KT P6SM SCT010 BKN025
     FM311800 23012KT P6SM SCT025 BKN035
     FM010100 19008KT P6SM SCT150=



000
FTUS44 KMEG 310500
TAFMKL
TAF
KMKL 310530Z 3106/0106 17005KT P6SM -SHRA OVC100
     FM311500 21010KT 6SM -SHRA BR VCTS BKN015 OVC025CB
     FM312000 22012KT P6SM VCTS SCT015 BKN030CB
     FM010100 18005KT P6SM SCT070 BKN150=



000
FTUS44 KMEG 310500
TAFJBR
TAF
KJBR 310530Z 3106/0106 16007KT P6SM SCT060
     FM310900 20007KT 5SM BR VCSH BKN008 OVC015
     FM311500 22010KT P6SM SCT010 BKN025
     FM311800 23012KT P6SM SCT025 BKN035
     FM010100 19008KT P6SM SCT150=



000
FTUS44 KMEG 310500
TAFTUP
TAF
KTUP 310530Z 3106/0106 18005KT P6SM VCTS OVC006CB
     FM311500 22011KT P6SM -SHRA SCT015 BKN025
     FM311800 22012KT P6SM VCSH SCT025 BKN035
      TEMPO 3118/3122 3SM -TSRA BKN025CB
     FM010100 18004KT P6SM SCT070 BKN150=



000
FTUS44 KMEG 310500
TAFMEM
TAF
KMEM 310530Z 3106/0106 16009KT P6SM -SHRA BKN010 OVC050
     FM310900 18010KT 5SM -SHRA BR BKN008 OVC015
     FM311500 22010KT P6SM VCSH BKN015 BKN035
     FM311800 22012KT P6SM VCTS SCT025 BKN035CB
     FM010100 19007KT P6SM SCT150=



000
FTUS44 KMEG 310300 AAA
TAFMEM
TAF AMD
KMEM 310307Z 3103/3124 16009KT 6SM -SHRA BR SCT010 BKN025
     FM310900 18010KT 4SM -SHRA BR BKN008 OVC015
     FM311500 22010KT 6SM -SHRA BKN015 BKN035
     FM311800 22012KT P6SM VCTS SCT025 BKN035CB=



000
FTUS44 KMEG 302300
TAFTUP
TAF
KTUP 302331Z 3100/3124 VRB03KT 3SM RA BR VCTS SCT010 BKN025CB
      TEMPO 3100/3102 3/4SM +RA BKN015
     FM310500 22008KT 4SM -SHRA BR VCTS BKN010CB OVC015CB
     FM311500 22011KT P6SM -SHRA SCT015 BKN025
      TEMPO 3118/3122 3SM -TSRA BKN015CB=



000
FTUS44 KMEG 302300
TAFMKL
TAF
KMKL 302331Z 3100/3124 17005KT P6SM -SHRA VCTS SCT015 BKN025CB
     FM310600 17008KT 5SM -RA BR VCTS BKN008 OVC015CB
     FM311500 21010KT 6SM -SHRA BR VCTS BKN015 OVC025CB
     FM312000 22012KT P6SM VCTS SCT015 BKN030CB=



000
FTUS44 KMEG 302300
TAFJBR
TAF
KJBR 302331Z 3100/3124 16007KT P6SM SCT045 BKN150
     FM310300 16006KT P6SM SCT008 BKN025 OVC060
     FM310700 20007KT 5SM BR VCSH BKN008 OVC015
     FM311500 22010KT P6SM SCT010 BKN025
     FM311800 23012KT P6SM SCT025 BKN035=



000
FTUS44 KMEG 302300
TAFMEM
TAF
KMEM 302331Z 3100/3124 16005KT 6SM -RA BR VCTS SCT015 BKN025CB
     FM310600 18010KT 4SM -RA BR VCTS BKN008 OVC015CB
     FM311500 22010KT 6SM -SHRA BKN015 BKN035
     FM311800 22012KT P6SM VCTS SCT025 BKN035CB=



000
FTUS44 KMEG 302200 AAB
TAFTUP
TAF AMD
KTUP 302241Z 3023/3118 VRB03KT 3SM RA BR VCTS SCT010 BKN025CB
      TEMPO 3023/3102 3/4SM +RA BKN008
     FM310400 22008KT 5SM SHRA VCTS BKN015CB OVC025CB
     FM311500 23011KT P6SM VCSH BKN025=



000
FTUS44 KMEG 302000 AAB
TAFMEM
TAF AMD
KMEM 302049Z 3021/3118 18006KT P6SM -SHRA FEW015 BKN035 OVC080
      TEMPO 3021/3101 6SM -SHRA SCT015 BKN025
     FM310100 16010KT P6SM -SHRA VCTS SCT015 BKN025CB
     FM310600 21009KT 5SM -SHRA BKN009 OVC015
      TEMPO 3111/3114 4SM TSRA BKN015 OVC025CB
     FM311500 24009KT 6SM -SHRA BKN015 BKN035=



000
FTUS44 KMEG 301900 AAA
TAFJBR
TAF AMD
KJBR 301955Z 3020/3118 23010KT P6SM SCT045 BKN150
     FM310300 14005KT P6SM VCSH SCT009 BKN015 OVC060
     FM310700 20007KT P6SM VCSH BKN009
      TEMPO 3109/3112 5SM -SHRA
     FM311500 23008KT P6SM SCT010 BKN025=



000
FTUS44 KMEG 301900 AAA
TAFMEM
TAF AMD
KMEM 301933Z 3020/3118 18006KT P6SM -SHRA FEW015 BKN035 OVC080
      TEMPO 3020/3023 6SM -SHRA SCT015 BKN025
     FM310100 16010KT P6SM -SHRA VCTS SCT015 BKN025CB
     FM310600 21011KT 5SM -SHRA BKN009 OVC015
      TEMPO 3111/3114 4SM TSRA BKN015 OVC025CB
     FM311500 24009KT 6SM -SHRA BKN015 BKN035=



000
FTUS44 KMEG 301900 AAA
TAFTUP
TAF AMD
KTUP 301927Z 3019/3118 18006KT P6SM -SHRA VCTS SCT025 BKN035CB
      TEMPO 3020/3023 18015G30KT 2SM +TSRA OVC035CB
     FM310400 22008KT 5SM SHRA VCTS BKN015CB OVC025CB
     FM311500 23011KT P6SM VCSH BKN025=



    US Dept of Commerce
    National Oceanic and Atmospheric Administration
    National Weather Service
    1325 East West Highway
    Silver Spring, MD 20910
    Page Author: NWS Internet Services Team
Disclaimer
Information Quality
Credits
Glossary
Privacy Policy
Freedom of Information Act (FOIA)
About Us
Career Opportunities